Time;durP1;ratioP1;P1;durP2;ratioP2;P2;SDS_P1;SDS_P2;PMS_P1;PMS_P2;Temp;Humidity;BMP_temperature;BMP_pressure;BME280_temperature;BME280_humidity;BME280_pressure;Samples;Min_cycle;Max_cycle;Signal;HPM_P1;HPM_P2
2022/04/02 00:01:10;;;;;;;0.82;0.82;;;12.80;42.00;;;;;;2252024;63;20216;-85
2022/04/02 00:03:35;;;;;;;0.80;0.70;;;12.70;42.00;;;;;;2251565;63;20291;-85
2022/04/02 00:06:01;;;;;;;2.40;0.75;;;12.70;42.20;;;;;;2251907;63;20208;-85
2022/04/02 00:08:27;;;;;;;0.93;0.80;;;12.70;42.10;;;;;;2251501;63;20226;-85
2022/04/02 00:10:53;;;;;;;1.00;0.90;;;12.70;42.30;;;;;;2251504;63;20773;-85
2022/04/02 00:13:19;;;;;;;1.05;0.90;;;12.60;42.20;;;;;;2244582;63;20228;-87
2022/04/02 00:15:44;;;;;;;0.80;0.80;;;12.60;42.50;;;;;;2251533;63;20811;-85
2022/04/02 00:18:10;;;;;;;1.27;1.00;;;12.60;42.30;;;;;;2251934;63;20366;-85
2022/04/02 00:20:36;;;;;;;1.10;0.95;;;12.60;42.30;;;;;;2251457;63;20200;-86
2022/04/02 00:25:46;;;;;;;0.70;0.70;;;12.50;42.20;;;;;;2251515;63;20232;-85
2022/04/02 00:28:12;;;;;;;1.25;0.80;;;12.50;42.30;;;;;;2244306;63;20385;-86
2022/04/02 00:30:40;;;;;;;2.35;0.75;;;12.50;42.60;;;;;;2251726;63;20272;-86
2022/04/02 00:33:08;;;;;;;1.33;0.88;;;12.50;42.50;;;;;;2251562;63;20240;-85
2022/04/02 00:35:33;;;;;;;1.00;0.90;;;12.40;42.40;;;;;;2237977;63;20388;-85
2022/04/02 00:37:59;;;;;;;0.93;0.88;;;12.50;42.40;;;;;;2251169;63;20313;-86
2022/04/02 00:40:27;;;;;;;1.27;0.80;;;12.40;42.60;;;;;;2245388;63;20205;-85
2022/04/02 00:42:53;;;;;;;1.63;0.90;;;12.40;42.50;;;;;;2248461;63;20800;-88
2022/04/02 00:45:19;;;;;;;2.38;0.93;;;12.40;42.60;;;;;;2251693;63;20227;-86
2022/04/02 00:47:44;;;;;;;1.20;0.88;;;12.30;42.60;;;;;;2251632;63;20368;-85
2022/04/02 00:50:11;;;;;;;1.00;0.90;;;12.40;42.70;;;;;;2251391;63;20776;-86
2022/04/02 00:52:40;;;;;;;1.02;0.70;;;12.30;42.80;;;;;;2251630;63;20370;-86
2022/04/02 00:55:08;;;;;;;0.65;0.60;;;12.30;42.90;;;;;;2251006;63;20533;-86
2022/04/02 00:57:34;;;;;;;0.82;0.77;;;12.30;42.90;;;;;;2251698;63;20236;-86
2022/04/02 01:00:00;;;;;;;0.70;0.70;;;12.30;42.70;;;;;;2251253;63;20246;-87
2022/04/02 01:02:26;;;;;;;1.42;1.00;;;12.30;42.90;;;;;;2251751;63;20220;-87
2022/04/02 01:04:54;;;;;;;1.02;0.93;;;12.30;42.90;;;;;;2251589;63;20364;-87
2022/04/02 01:07:21;;;;;;;1.30;0.90;;;12.30;42.80;;;;;;2251466;63;20267;-87
2022/04/02 01:09:47;;;;;;;1.25;0.90;;;12.30;42.90;;;;;;2251305;63;20281;-87
2022/04/02 01:12:13;;;;;;;0.98;0.70;;;12.20;42.80;;;;;;2244088;63;20242;-86
2022/04/02 01:14:39;;;;;;;1.05;0.73;;;12.20;42.90;;;;;;2244573;63;20224;-87
2022/04/02 01:17:05;;;;;;;1.30;0.90;;;12.30;43.10;;;;;;2251107;63;20311;-86
2022/04/02 01:19:33;;;;;;;0.90;0.90;;;12.20;43.00;;;;;;2251708;63;20244;-86
2022/04/02 01:21:59;;;;;;;0.73;0.70;;;12.20;43.00;;;;;;2251233;63;20224;-86
2022/04/02 01:24:25;;;;;;;1.00;0.90;;;12.20;43.10;;;;;;2251044;63;20216;-86
2022/04/02 01:26:50;;;;;;;0.80;0.80;;;12.20;43.00;;;;;;2251423;63;20395;-86
2022/04/02 01:29:16;;;;;;;0.70;0.70;;;12.20;43.00;;;;;;2243786;63;20704;-86
2022/04/02 01:31:44;;;;;;;1.75;1.10;;;12.10;43.10;;;;;;2251485;63;20254;-87
2022/04/02 01:34:09;;;;;;;0.88;0.80;;;12.20;43.00;;;;;;2250706;63;20388;-86
2022/04/02 01:36:35;;;;;;;1.63;0.90;;;12.10;43.00;;;;;;2251438;63;20228;-86
2022/04/02 01:39:01;;;;;;;1.00;0.80;;;12.10;43.00;;;;;;2250914;63;20653;-87
2022/04/02 01:41:27;;;;;;;1.58;0.80;;;12.10;43.00;;;;;;2251349;63;20248;-87
2022/04/02 01:43:53;;;;;;;0.70;0.70;;;12.00;42.90;;;;;;2251237;63;20212;-87
2022/04/02 01:46:19;;;;;;;1.30;0.80;;;12.10;43.10;;;;;;2250872;63;20242;-87
2022/04/02 01:48:45;;;;;;;0.70;0.70;;;12.10;43.20;;;;;;2251232;63;20801;-87
2022/04/02 01:51:12;;;;;;;0.80;0.80;;;12.00;43.00;;;;;;2250763;63;20390;-87
2022/04/02 01:53:38;;;;;;;0.82;0.80;;;12.00;43.20;;;;;;2251134;63;21184;-87
2022/04/02 01:56:09;;;;;;;0.77;0.77;;;12.00;43.20;;;;;;2250626;63;20671;-85
2022/04/02 01:58:35;;;;;;;0.98;0.70;;;12.00;43.10;;;;;;2251406;63;20239;-86
2022/04/02 02:01:01;;;;;;;0.95;0.60;;;12.00;43.20;;;;;;2243799;63;20459;-87
2022/04/02 02:03:27;;;;;;;0.60;0.60;;;12.00;43.30;;;;;;2250929;63;20252;-86
2022/04/02 02:05:53;;;;;;;0.68;0.68;;;11.90;43.20;;;;;;2251142;63;20200;-87
2022/04/02 02:08:19;;;;;;;0.90;0.75;;;11.90;43.30;;;;;;2250644;63;20773;-86
2022/04/02 02:10:47;;;;;;;1.17;0.70;;;11.90;43.20;;;;;;2250567;63;20204;-86
2022/04/02 02:13:13;;;;;;;0.85;0.77;;;11.90;43.30;;;;;;2250030;63;20647;-86
2022/04/02 02:15:38;;;;;;;0.63;0.60;;;11.90;43.50;;;;;;2251513;63;20236;-87
2022/04/02 02:18:04;;;;;;;0.93;0.70;;;11.90;43.50;;;;;;2250812;63;20209;-87
2022/04/02 02:20:30;;;;;;;0.60;0.60;;;11.90;43.50;;;;;;2251045;63;20245;-87
2022/04/02 02:22:56;;;;;;;1.02;0.80;;;11.90;44.30;;;;;;2251086;63;20454;-86
2022/04/02 02:25:22;;;;;;;1.15;0.73;;;11.90;43.60;;;;;;2250455;63;20212;-86
2022/04/02 02:27:48;;;;;;;1.25;0.60;;;11.90;43.70;;;;;;2251124;63;20736;-86
2022/04/02 02:30:15;;;;;;;0.80;0.80;;;11.90;43.70;;;;;;2250906;63;20220;-86
2022/04/02 02:32:43;;;;;;;0.80;0.80;;;11.90;43.70;;;;;;2251206;63;20667;-86
2022/04/02 02:38:10;;;;;;;0.82;0.80;;;11.90;43.80;;;;;;2251091;63;20283;-86
2022/04/02 02:40:36;;;;;;;;;;;11.80;43.80;;;;;;2251280;63;20230;-87
2022/04/02 02:43:04;;;;;;;1.23;0.80;;;11.80;43.80;;;;;;2250689;63;20092;-88
2022/04/02 02:45:31;;;;;;;0.93;0.70;;;11.80;43.90;;;;;;2251145;63;20228;-88
2022/04/02 02:47:58;;;;;;;1.10;0.70;;;11.80;44.00;;;;;;2250627;63;20235;-87
2022/04/02 02:50:25;;;;;;;1.90;0.93;;;11.80;44.00;;;;;;2251061;63;20203;-87
2022/04/02 02:52:51;;;;;;;0.90;0.80;;;11.80;44.00;;;;;;2250969;63;20302;-86
2022/04/02 02:55:18;;;;;;;1.17;0.85;;;11.80;44.00;;;;;;2250421;63;20337;-88
2022/04/02 02:57:46;;;;;;;1.02;0.90;;;11.70;44.00;;;;;;2250976;63;20212;-87
2022/04/02 03:00:15;;;;;;;0.70;0.70;;;11.70;44.10;;;;;;2250617;63;20649;-86
2022/04/02 03:02:41;;;;;;;0.70;0.70;;;11.70;44.10;;;;;;2251104;63;20325;-87
2022/04/02 03:05:11;;;;;;;0.90;0.90;;;11.70;44.20;;;;;;2250566;63;20326;-87
2022/04/02 03:07:48;;;;;;;0.70;0.68;;;11.70;44.30;;;;;;2251112;63;20649;-87
2022/04/02 03:10:19;;;;;;;0.95;0.80;;;11.70;44.30;;;;;;2250587;63;20220;-87
2022/04/02 03:12:51;;;;;;;0.70;0.70;;;11.70;44.30;;;;;;2250545;63;20212;-86
2022/04/02 03:15:18;;;;;;;1.02;0.77;;;11.60;44.20;;;;;;2250818;63;20721;-87
2022/04/02 03:17:45;;;;;;;1.05;0.80;;;11.70;44.30;;;;;;2250374;63;20245;-87
2022/04/02 03:20:13;;;;;;;0.95;0.85;;;11.60;44.20;;;;;;2251110;63;20331;-86
2022/04/02 03:22:40;;;;;;;0.98;0.82;;;11.60;44.20;;;;;;2251256;63;20723;-87
2022/04/02 03:25:11;;;;;;;1.30;1.00;;;11.60;44.20;;;;;;2252155;63;20717;-87
2022/04/02 03:27:38;;;;;;;1.10;0.93;;;11.60;44.30;;;;;;2251990;63;20218;-87
2022/04/02 03:30:07;;;;;;;1.38;0.73;;;11.60;44.30;;;;;;2251818;63;20261;-87
2022/04/02 03:32:32;;;;;;;0.77;0.70;;;11.60;44.40;;;;;;2252214;63;20774;-86
2022/04/02 03:34:59;;;;;;;1.23;1.00;;;11.60;44.20;;;;;;2251740;63;20255;-87
2022/04/02 03:37:25;;;;;;;0.98;0.77;;;11.60;44.30;;;;;;2252170;63;20232;-88
2022/04/02 03:39:53;;;;;;;0.70;0.70;;;11.60;44.50;;;;;;2251512;63;20224;-87
2022/04/02 03:42:20;;;;;;;1.33;0.90;;;11.60;44.50;;;;;;2252140;63;20224;-87
2022/04/02 03:44:47;;;;;;;1.75;0.82;;;11.60;44.50;;;;;;2251745;63;20461;-87
2022/04/02 03:47:13;;;;;;;1.35;0.88;;;11.60;44.50;;;;;;2251791;63;20365;-86
2022/04/02 03:49:47;;;;;;;1.20;0.85;;;11.50;44.40;;;;;;2251794;63;20337;-87
2022/04/02 03:52:15;;;;;;;0.98;0.82;;;11.60;44.50;;;;;;2249683;63;20249;-87
2022/04/02 03:54:41;;;;;;;1.08;0.90;;;11.50;44.50;;;;;;2251975;63;21177;-87
2022/04/02 03:57:09;;;;;;;0.88;0.85;;;11.50;44.60;;;;;;2251712;63;20208;-86
2022/04/02 03:59:37;;;;;;;1.00;0.82;;;11.50;44.50;;;;;;2252119;63;20227;-87
2022/04/02 04:02:06;;;;;;;0.98;0.90;;;11.50;44.60;;;;;;2251236;63;20715;-87
2022/04/02 04:04:32;;;;;;;1.75;0.93;;;11.50;44.60;;;;;;2244719;63;20233;-86
2022/04/02 04:06:59;;;;;;;1.10;0.90;;;11.50;44.60;;;;;;2251996;63;20843;-86
2022/04/02 04:09:25;;;;;;;1.20;0.95;;;11.40;44.60;;;;;;2251581;63;20742;-86
2022/04/02 04:11:52;;;;;;;0.80;0.80;;;11.40;44.60;;;;;;2251961;63;20205;-86
2022/04/02 04:14:19;;;;;;;1.25;0.90;;;11.40;44.60;;;;;;2251435;63;20228;-86
2022/04/02 04:16:46;;;;;;;1.45;0.80;;;11.40;44.70;;;;;;2252235;63;20215;-86
2022/04/02 04:19:13;;;;;;;1.15;0.80;;;11.40;44.80;;;;;;2251455;63;20379;-86
2022/04/02 04:21:40;;;;;;;1.15;0.90;;;11.40;44.80;;;;;;2244611;63;20371;-86
2022/04/02 04:24:06;;;;;;;0.98;0.88;;;11.30;44.70;;;;;;2251618;63;20760;-86
2022/04/02 04:26:33;;;;;;;1.05;0.90;;;11.30;44.90;;;;;;2251608;63;20756;-87
2022/04/02 04:28:59;;;;;;;1.50;1.05;;;11.30;44.80;;;;;;2251652;63;20298;-87
2022/04/02 04:31:25;;;;;;;0.70;0.70;;;11.30;44.90;;;;;;2249552;63;20208;-87
2022/04/02 04:33:51;;;;;;;1.10;0.93;;;11.30;44.90;;;;;;2251330;63;20315;-87
2022/04/02 04:36:24;;;;;;;1.08;0.90;;;11.30;44.90;;;;;;2251425;63;20327;-86
2022/04/02 04:38:51;;;;;;;1.10;0.90;;;11.30;45.00;;;;;;2250744;63;20235;-86
2022/04/02 04:41:17;;;;;;;1.58;0.90;;;11.30;45.00;;;;;;2250079;63;20234;-86
2022/04/02 04:43:47;;;;;;;2.38;0.90;;;11.30;44.90;;;;;;2251801;63;20261;-86
2022/04/02 04:46:18;;;;;;;1.20;1.00;;;11.30;45.00;;;;;;2251161;63;20421;-87
2022/04/02 04:48:44;;;;;;;1.77;1.10;;;11.30;45.00;;;;;;2251989;63;20735;-86
2022/04/02 04:51:12;;;;;;;1.60;0.90;;;11.30;45.10;;;;;;2253133;63;20209;-87
2022/04/02 04:53:39;;;;;;;1.35;0.80;;;11.30;45.10;;;;;;2243770;63;20559;-86
2022/04/02 04:56:05;;;;;;;1.20;0.90;;;11.30;45.00;;;;;;2244069;63;20862;-86
2022/04/02 04:58:31;;;;;;;1.05;0.90;;;11.20;45.10;;;;;;2251451;63;20246;-86
2022/04/02 05:00:59;;;;;;;1.10;1.00;;;11.20;45.00;;;;;;2251283;63;20313;-86
2022/04/02 05:03:25;;;;;;;1.05;0.90;;;11.20;45.10;;;;;;2251633;63;20232;-87
2022/04/02 05:05:52;;;;;;;1.40;1.10;;;11.20;45.10;;;;;;2243943;63;20232;-87
2022/04/02 05:08:23;;;;;;;1.05;0.95;;;11.20;45.00;;;;;;2251467;63;20377;-87
2022/04/02 05:10:49;;;;;;;1.10;0.90;;;11.20;45.20;;;;;;2250075;63;20758;-88
2022/04/02 05:13:15;;;;;;;1.02;0.93;;;11.20;45.20;;;;;;2251703;63;20790;-87
2022/04/02 05:15:43;;;;;;;2.65;1.00;;;11.20;45.20;;;;;;2251578;63;20796;-87
2022/04/02 05:18:09;;;;;;;0.90;0.90;;;11.20;45.20;;;;;;2251102;63;20261;-86
2022/04/02 05:20:37;;;;;;;0.85;0.82;;;11.20;45.10;;;;;;2251285;63;20356;-87
2022/04/02 05:23:04;;;;;;;1.05;0.90;;;11.20;45.10;;;;;;2251178;63;20312;-87
2022/04/02 05:25:33;;;;;;;2.05;0.88;;;11.20;45.20;;;;;;2244174;63;20854;-87
2022/04/02 05:28:00;;;;;;;1.15;0.80;;;11.20;45.20;;;;;;2251003;63;20762;-86
2022/04/02 05:30:29;;;;;;;0.80;0.80;;;11.30;45.20;;;;;;2251850;63;20751;-87
2022/04/02 05:32:55;;;;;;;1.60;0.90;;;11.20;45.20;;;;;;2243989;63;20690;-88
2022/04/02 05:35:22;;;;;;;1.48;0.80;;;11.30;45.30;;;;;;2251306;63;20380;-88
2022/04/02 05:37:49;;;;;;;1.40;1.00;;;11.30;45.40;;;;;;2251364;63;20220;-88
2022/04/02 05:40:15;;;;;;;1.00;0.90;;;11.40;45.50;;;;;;2250776;63;20338;-87
2022/04/02 05:42:42;;;;;;;1.00;0.90;;;11.40;45.50;;;;;;2251269;63;20241;-88
2022/04/02 05:45:08;;;;;;;2.25;0.90;;;11.50;45.50;;;;;;2250595;63;20219;-87
2022/04/02 05:47:49;;;;;;;2.03;0.90;;;11.60;45.50;;;;;;2251582;63;20240;-88
2022/04/02 05:50:16;;;;;;;1.92;1.00;;;11.70;45.40;;;;;;2250963;63;20232;-86
2022/04/02 05:52:43;;;;;;;1.38;1.00;;;11.80;45.30;;;;;;2251107;63;20257;-88
2022/04/02 05:55:11;;;;;;;1.80;1.35;;;11.90;45.10;;;;;;2243661;63;20240;-87
2022/04/02 05:57:38;;;;;;;1.45;0.90;;;12.00;44.90;;;;;;2250795;63;20369;-88
2022/04/02 06:00:06;;;;;;;1.02;0.93;;;12.00;44.80;;;;;;2251284;63;20246;-87
2022/04/02 06:02:36;;;;;;;1.95;1.23;;;12.10;44.70;;;;;;2250847;63;20208;-88
2022/04/02 06:05:04;;;;;;;5.20;1.10;;;12.20;44.50;;;;;;2251385;63;20204;-87
2022/04/02 06:07:31;;;;;;;1.42;0.90;;;12.20;44.30;;;;;;2247621;63;20335;-88
2022/04/02 06:09:57;;;;;;;1.30;1.00;;;12.30;44.20;;;;;;2243240;63;20473;-87
2022/04/02 06:12:23;;;;;;;1.20;1.10;;;12.30;44.10;;;;;;2243179;63;20748;-87
2022/04/02 06:14:48;;;;;;;1.25;1.10;;;12.40;44.00;;;;;;2242830;63;20666;-88
2022/04/02 06:17:14;;;;;;;1.30;1.00;;;12.50;44.00;;;;;;2243162;63;20350;-87
2022/04/02 06:19:40;;;;;;;1.40;0.98;;;12.60;43.90;;;;;;2235769;63;20250;-89
2022/04/02 06:22:07;;;;;;;1.23;1.00;;;12.70;43.80;;;;;;2243384;63;20209;-87
2022/04/02 06:24:34;;;;;;;1.48;1.10;;;12.70;43.50;;;;;;2242860;63;20217;-87
2022/04/02 06:27:00;;;;;;;1.05;0.95;;;12.80;43.50;;;;;;2243234;63;20365;-88
2022/04/02 06:29:25;;;;;;;2.58;0.95;;;12.80;43.40;;;;;;2243193;63;20415;-88
2022/04/02 06:31:51;;;;;;;0.82;0.82;;;12.90;43.20;;;;;;2242886;63;20326;-87
2022/04/02 06:34:17;;;;;;;1.70;1.10;;;13.00;43.20;;;;;;2243152;63;20285;-86
2022/04/02 06:36:43;;;;;;;1.52;0.98;;;13.00;43.10;;;;;;2242692;63;20262;-87
2022/04/02 06:39:12;;;;;;;1.48;1.00;;;13.10;42.90;;;;;;2242888;63;20216;-86
2022/04/02 06:41:38;;;;;;;0.82;0.82;;;13.20;42.80;;;;;;2242716;63;20389;-87
2022/04/02 06:44:05;;;;;;;1.52;0.80;;;13.20;42.70;;;;;;2243006;63;20208;-87
2022/04/02 06:46:30;;;;;;;1.08;0.98;;;13.20;42.60;;;;;;2242853;63;20369;-86
2022/04/02 06:48:56;;;;;;;2.03;1.10;;;13.30;42.60;;;;;;2242819;63;20239;-86
2022/04/02 06:51:22;;;;;;;1.52;1.10;;;13.40;42.50;;;;;;2243406;63;20879;-86
2022/04/02 06:53:48;;;;;;;1.20;0.90;;;13.40;42.30;;;;;;2242393;63;20381;-86
2022/04/02 06:56:14;;;;;;;1.35;1.25;;;13.50;42.30;;;;;;2242981;63;20855;-88
2022/04/02 06:58:39;;;;;;;2.20;1.20;;;13.50;41.90;;;;;;2255008;63;20216;-87
2022/04/02 07:01:06;;;;;;;1.75;1.00;;;13.60;42.00;;;;;;2260254;63;20705;-89
2022/04/02 07:03:35;;;;;;;1.38;1.05;;;13.60;42.00;;;;;;2260084;63;20967;-87
2022/04/02 07:06:01;;;;;;;2.08;0.80;;;13.70;41.70;;;;;;2260204;63;20803;-88
2022/04/02 07:08:27;;;;;;;2.10;1.02;;;13.70;41.70;;;;;;2260015;63;20360;-87
2022/04/02 07:10:53;;;;;;;1.63;0.90;;;13.70;41.60;;;;;;2259974;63;20231;-92
2022/04/02 07:13:19;;;;;;;2.08;0.90;;;13.70;41.50;;;;;;2260994;63;20311;-90
2022/04/02 07:15:45;;;;;;;2.00;1.00;;;13.80;41.60;;;;;;2260501;63;20240;-90
2022/04/02 07:18:11;;;;;;;1.02;0.82;;;13.80;41.40;;;;;;2260821;63;20239;-90
2022/04/02 07:20:39;;;;;;;2.55;1.02;;;13.90;41.30;;;;;;2260016;63;20211;-91
2022/04/02 07:23:08;;;;;;;0.80;0.80;;;13.90;41.30;;;;;;2260623;63;20230;-91
2022/04/02 07:25:40;;;;;;;1.77;0.85;;;13.90;41.30;;;;;;2260560;63;20976;-91
2022/04/02 07:28:07;;;;;;;1.15;0.80;;;13.90;41.30;;;;;;2260400;63;20224;-90
2022/04/02 07:30:36;;;;;;;2.22;1.20;;;14.00;41.10;;;;;;2260481;63;20231;-89
2022/04/02 07:33:02;;;;;;;1.27;0.93;;;14.00;41.10;;;;;;2259986;63;20289;-89
2022/04/02 07:35:37;;;;;;;1.45;0.80;;;14.10;41.00;;;;;;2260691;63;20705;-90
2022/04/02 07:38:12;;;;;;;2.47;1.17;;;14.10;40.80;;;;;;2260167;63;20303;-90
2022/04/02 07:40:44;;;;;;;2.60;1.10;;;14.20;40.80;;;;;;2260458;63;20215;-89
2022/04/02 07:43:30;;;;;;;1.33;0.90;;;14.30;40.60;;;;;;2262575;63;20393;-90
2022/04/02 07:46:04;;;;;;;3.15;1.08;;;14.40;40.30;;;;;;2260149;63;20249;-89
2022/04/02 07:48:37;;;;;;;0.82;0.70;;;14.60;40.10;;;;;;2253239;63;20268;-90
2022/04/02 07:51:11;;;;;;;4.13;1.30;;;14.80;39.80;;;;;;2252347;63;20216;-88
2022/04/02 07:54:00;;;;;;;3.05;1.00;;;15.10;39.30;;;;;;2245562;63;20256;-89
2022/04/02 07:56:34;;;;;;;4.57;1.00;;;15.40;39.00;;;;;;2252349;63;20322;-90
2022/04/02 07:59:03;;;;;;;1.38;0.80;;;15.70;38.40;;;;;;2251832;63;20221;-89
2022/04/02 08:01:29;;;;;;;;;;;16.10;38.00;;;;;;2252748;63;20728;-90
2022/04/02 08:04:02;;;;;;;2.08;0.80;;;16.50;37.40;;;;;;2251861;63;20248;-90
2022/04/02 08:06:31;;;;;;;2.20;1.00;;;17.00;36.70;;;;;;2252224;63;20216;-89
2022/04/02 08:08:59;;;;;;;1.53;1.00;;;17.30;35.50;;;;;;2252010;63;20741;-89
2022/04/02 08:11:26;;;;;;;2.23;0.83;;;17.80;34.60;;;;;;2251800;63;20367;-86
2022/04/02 08:13:54;;;;;;;1.05;0.70;;;18.20;34.10;;;;;;2252072;63;20244;-90
2022/04/02 08:16:20;;;;;;;2.08;1.05;;;18.50;33.50;;;;;;2252079;63;20385;-91
2022/04/02 08:18:47;;;;;;;1.00;0.90;;;18.80;33.10;;;;;;2252411;63;20232;-90
2022/04/02 08:21:14;;;;;;;3.40;0.90;;;19.00;32.90;;;;;;2251821;63;20585;-91
2022/04/02 08:23:40;;;;;;;1.75;0.90;;;19.40;32.20;;;;;;2251955;63;20330;-88
2022/04/02 08:26:33;;;;;;;2.35;1.02;;;19.80;31.70;;;;;;2253081;63;21844;-90
2022/04/02 08:29:47;;;;;;;1.73;1.02;;;20.10;30.80;;;;;;2255210;63;21120;-88
2022/04/02 08:32:54;;;;;;;1.55;0.80;;;20.50;30.30;;;;;;2255999;63;20445;-89
2022/04/02 08:35:43;;;;;;;3.70;1.05;;;20.70;29.90;;;;;;2257854;63;20256;-89
2022/04/02 08:38:17;;;;;;;1.13;0.82;;;21.10;29.90;;;;;;2257949;63;20225;-89
2022/04/02 08:41:14;;;;;;;1.05;0.75;;;21.30;29.30;;;;;;2257806;63;20248;-89
2022/04/02 08:43:45;;;;;;;1.40;1.10;;;21.50;29.10;;;;;;2253002;63;20212;-89
2022/04/02 08:46:37;;;;;;;0.85;0.80;;;21.60;28.90;;;;;;2258238;63;20234;-89
2022/04/02 08:49:22;;;;;;;0.98;0.98;;;21.60;28.80;;;;;;2256311;63;20220;-92
2022/04/02 08:52:04;;;;;;;1.42;0.95;;;21.70;28.90;;;;;;2255469;63;20241;-89
2022/04/02 08:54:39;;;;;;;1.10;1.00;;;21.60;28.90;;;;;;2257881;63;20240;-90
2022/04/02 08:57:26;;;;;;;2.28;1.15;;;21.30;29.00;;;;;;2252571;63;20232;-91
2022/04/02 09:00:02;;;;;;;0.73;0.68;;;21.00;29.10;;;;;;2249187;63;20252;-91
2022/04/02 09:02:43;;;;;;;0.90;0.80;;;20.60;29.50;;;;;;2251883;63;20236;-89
2022/04/02 09:05:25;;;;;;;0.82;0.82;;;20.50;29.80;;;;;;2252180;63;20352;-93
2022/04/02 09:08:26;;;;;;;1.02;0.90;;;20.30;30.00;;;;;;2249958;63;20372;-87
2022/04/02 09:11:23;;;;;;;1.95;0.80;;;20.20;30.20;;;;;;2249551;63;20241;-87
2022/04/02 09:14:18;;;;;;;0.90;0.90;;;20.00;30.30;;;;;;2251508;63;20253;-88
2022/04/02 09:17:12;;;;;;;1.67;0.70;;;19.80;30.20;;;;;;2250956;63;20473;-89
2022/04/02 09:20:05;;;;;;;1.35;0.70;;;19.60;30.50;;;;;;2252634;63;20822;-91
2022/04/02 09:22:42;;;;;;;0.95;0.88;;;19.30;30.90;;;;;;2255616;63;20803;-91
2022/04/02 09:25:29;;;;;;;1.17;0.80;;;19.30;31.20;;;;;;2254810;63;20376;-92
2022/04/02 09:28:09;;;;;;;1.13;0.90;;;19.40;31.20;;;;;;2256670;63;20249;-89
2022/04/02 09:30:50;;;;;;;11.38;1.23;;;19.30;31.40;;;;;;2255830;63;20803;-92
2022/04/02 09:33:48;;;;;;;1.80;0.90;;;19.10;31.40;;;;;;2251153;63;20207;-95
2022/04/02 09:36:30;;;;;;;1.65;0.70;;;19.00;31.60;;;;;;2253542;63;20967;-93
2022/04/02 09:39:11;;;;;;;0.73;0.65;;;18.90;31.90;;;;;;2250877;63;20385;-95
2022/04/02 09:42:12;;;;;;;1.00;0.57;;;18.80;32.00;;;;;;2250860;63;20800;-93
2022/04/02 09:45:08;;;;;;;0.90;0.70;;;18.70;32.20;;;;;;2238179;63;20208;-94
2022/04/02 09:48:14;;;;;;;0.70;0.70;;;18.50;32.30;;;;;;2245579;63;20245;-92
2022/04/02 09:50:42;;;;;;;1.55;1.23;;;18.30;32.50;;;;;;2255053;63;20203;-93
2022/04/02 09:53:15;;;;;;;1.02;0.60;;;17.90;33.00;;;;;;2254573;63;20233;-91
2022/04/02 09:55:52;;;;;;;1.95;0.70;;;17.60;33.30;;;;;;2252618;63;20247;-92
2022/04/02 09:58:48;;;;;;;0.98;0.80;;;17.30;33.80;;;;;;2254314;63;20248;-92
2022/04/02 10:01:50;;;;;;;0.63;0.60;;;17.00;34.10;;;;;;2251643;63;20843;-91
2022/04/02 10:04:51;;;;;;;1.13;0.82;;;16.70;34.30;;;;;;2209015;64;20258;-93
2022/04/02 10:07:34;;;;;;;0.60;0.60;;;16.50;34.80;;;;;;2207689;64;20256;-93
2022/04/02 10:10:02;;;;;;;0.75;0.68;;;16.30;35.10;;;;;;2208483;64;20325;-92
2022/04/02 10:12:29;;;;;;;1.02;0.80;;;16.10;35.40;;;;;;2210335;64;20234;-92
2022/04/02 10:14:59;;;;;;;0.65;0.65;;;15.90;35.50;;;;;;2207011;64;20378;-92
2022/04/02 10:17:30;;;;;;;1.73;1.10;;;15.80;35.80;;;;;;2206799;64;20200;-92
2022/04/02 10:19:58;;;;;;;1.35;1.00;;;15.60;36.10;;;;;;2202198;64;20350;-92
2022/04/02 10:22:41;;;;;;;1.05;0.77;;;15.40;36.20;;;;;;2207116;64;20839;-93
2022/04/02 10:25:10;;;;;;;1.02;0.75;;;15.20;36.60;;;;;;2207992;64;20239;-92
2022/04/02 10:27:41;;;;;;;2.38;0.70;;;15.20;37.10;;;;;;2208337;64;20237;-93
2022/04/02 10:30:11;;;;;;;0.82;0.70;;;15.00;37.10;;;;;;2206494;64;20940;-92
2022/04/02 10:32:57;;;;;;;0.75;0.70;;;14.90;36.90;;;;;;2207800;64;20249;-93
2022/04/02 10:35:26;;;;;;;1.20;1.10;;;14.80;37.00;;;;;;2209577;64;20215;-93
2022/04/02 10:37:57;;;;;;;1.50;1.20;;;14.70;37.50;;;;;;2207952;64;20322;-92
2022/04/02 10:40:25;;;;;;;1.02;0.60;;;14.60;38.20;;;;;;2222476;63;20216;-90
2022/04/02 10:42:56;;;;;;;0.70;0.70;;;14.60;39.20;;;;;;2256623;63;20233;-93
2022/04/02 10:45:22;;;;;;;1.88;0.60;;;14.60;39.70;;;;;;2255386;63;20456;-90
2022/04/02 10:47:56;;;;;;;1.05;0.60;;;14.70;40.00;;;;;;2256146;63;20715;-91
2022/04/02 10:50:22;;;;;;;1.55;0.80;;;14.70;40.40;;;;;;2252725;63;20235;-91
2022/04/02 10:52:50;;;;;;;2.08;0.90;;;14.70;40.30;;;;;;2253847;63;20685;-88
2022/04/02 10:55:18;;;;;;;1.77;0.85;;;14.70;40.20;;;;;;2253924;63;20261;-90
2022/04/02 10:57:44;;;;;;;1.27;0.70;;;14.70;40.90;;;;;;2256265;63;20212;-93
2022/04/02 11:00:11;;;;;;;3.97;0.98;;;14.70;41.20;;;;;;2252093;63;20239;-91
2022/04/02 11:02:45;;;;;;;0.95;0.80;;;14.70;41.60;;;;;;2245776;63;20273;-91
2022/04/02 11:05:16;;;;;;;0.70;0.60;;;14.70;40.50;;;;;;2252068;63;20256;-90
2022/04/02 11:07:48;;;;;;;1.40;0.98;;;14.70;40.60;;;;;;2249693;63;20250;-90
2022/04/02 11:10:17;;;;;;;1.27;0.88;;;14.70;40.60;;;;;;2253282;63;20352;-91
2022/04/02 11:12:45;;;;;;;1.13;0.63;;;14.80;41.40;;;;;;2255648;63;20261;-88
2022/04/02 11:15:14;;;;;;;1.23;0.70;;;14.70;41.00;;;;;;2253060;63;20211;-91
2022/04/02 11:17:41;;;;;;;5.10;0.90;;;14.80;41.10;;;;;;2256831;63;20226;-91
2022/04/02 11:20:12;;;;;;;1.60;0.80;;;14.80;41.60;;;;;;2255819;63;20248;-90
2022/04/02 11:22:59;;;;;;;1.15;0.63;;;14.90;41.00;;;;;;2255083;63;20232;-92
2022/04/02 11:25:31;;;;;;;1.33;0.70;;;14.90;41.30;;;;;;2245060;63;20285;-90
2022/04/02 11:28:14;;;;;;;1.05;0.65;;;15.00;41.30;;;;;;2250972;63;20380;-89
2022/04/02 11:30:49;;;;;;;0.77;0.60;;;15.00;41.10;;;;;;2251232;63;20212;-89
2022/04/02 11:33:19;;;;;;;1.50;1.23;;;15.10;40.60;;;;;;2256295;63;20223;-89
2022/04/02 11:36:06;;;;;;;0.80;0.70;;;15.10;41.00;;;;;;2254083;63;20350;-90
2022/04/02 11:38:40;;;;;;;0.60;0.60;;;15.20;40.50;;;;;;2257248;63;20221;-91
2022/04/02 11:41:15;;;;;;;0.85;0.70;;;15.20;40.60;;;;;;2246712;63;20223;-90
2022/04/02 11:43:43;;;;;;;0.88;0.60;;;15.30;40.50;;;;;;2253015;63;20224;-90
2022/04/02 11:46:11;;;;;;;3.53;0.60;;;15.30;40.40;;;;;;2255375;63;20633;-91
2022/04/02 11:48:51;;;;;;;1.65;0.70;;;15.40;40.30;;;;;;2256598;63;20249;-90
2022/04/02 11:51:25;;;;;;;0.60;0.60;;;15.40;40.00;;;;;;2254099;63;20734;-91
2022/04/02 11:53:52;;;;;;;2.80;0.63;;;15.40;39.50;;;;;;2257998;63;20224;-91
2022/04/02 11:56:35;;;;;;;1.67;0.70;;;15.40;39.90;;;;;;2252729;63;20871;-91
2022/04/02 11:59:05;;;;;;;0.57;0.57;;;15.50;39.90;;;;;;2251377;63;20364;-92
2022/04/02 12:01:50;;;;;;;0.95;0.60;;;15.60;40.10;;;;;;2255285;63;20224;-92
2022/04/02 12:04:17;;;;;;;3.05;0.75;;;15.60;39.80;;;;;;2245721;63;20388;-91
2022/04/02 12:06:46;;;;;;;1.05;0.93;;;15.70;40.10;;;;;;2251920;63;20794;-86
2022/04/02 12:09:21;;;;;;;0.88;0.68;;;15.70;40.00;;;;;;2251398;63;20674;-85
2022/04/02 12:12:01;;;;;;;0.60;0.50;;;15.80;39.50;;;;;;2250055;63;20366;-90
2022/04/02 12:14:27;;;;;;;;;;;15.80;39.60;;;;;;2255400;63;20207;-90
2022/04/02 12:17:19;;;;;;;0.77;0.60;;;15.80;39.50;;;;;;2251279;63;20096;-87
2022/04/02 12:19:53;;;;;;;2.45;0.60;;;15.90;39.50;;;;;;2251773;63;20649;-90
2022/04/02 12:22:21;;;;;;;1.50;0.65;;;15.90;39.40;;;;;;2257302;63;20709;-90
2022/04/02 12:24:53;;;;;;;0.80;0.60;;;15.90;39.40;;;;;;2251437;63;20243;-90
2022/04/02 12:27:23;;;;;;;0.70;0.63;;;16.00;39.40;;;;;;2254131;63;20415;-89
2022/04/02 12:29:51;;;;;;;0.43;0.43;;;16.00;39.40;;;;;;2252320;63;20255;-90
2022/04/02 12:32:44;;;;;;;1.30;0.60;;;16.00;39.40;;;;;;2254585;63;20395;-90
2022/04/02 12:35:15;;;;;;;0.77;0.60;;;16.00;39.40;;;;;;2256631;63;20219;-87
2022/04/02 12:37:48;;;;;;;0.50;0.50;;;16.00;39.50;;;;;;2249517;63;20229;-88
2022/04/02 12:40:21;;;;;;;1.77;0.68;;;16.00;39.60;;;;;;2257332;63;20453;-88
2022/04/02 12:42:56;;;;;;;0.70;0.40;;;16.00;39.50;;;;;;2257087;63;20930;-87
2022/04/02 12:45:24;;;;;;;0.60;0.52;;;16.00;39.60;;;;;;2256078;63;20211;-88
2022/04/02 12:48:03;;;;;;;0.40;0.40;;;16.00;39.50;;;;;;2257428;63;20223;-88
2022/04/02 12:50:32;;;;;;;1.70;0.95;;;16.10;39.60;;;;;;2250019;63;20715;-88
2022/04/02 12:52:58;;;;;;;0.70;0.60;;;16.10;39.50;;;;;;2255720;63;20227;-88
2022/04/02 12:55:29;;;;;;;1.20;0.63;;;16.20;39.60;;;;;;2257028;63;20705;-88
2022/04/02 12:58:05;;;;;;;0.82;0.60;;;16.20;39.60;;;;;;2256798;63;20665;-88
2022/04/02 13:00:44;;;;;;;1.35;0.55;;;16.20;39.60;;;;;;2257082;63;20731;-87
2022/04/02 13:03:23;;;;;;;0.83;0.67;;;16.30;39.70;;;;;;2251854;63;20238;-88
2022/04/02 13:05:51;;;;;;;;;;;16.30;39.60;;;;;;2255086;63;20260;-88
2022/04/02 13:08:17;;;;;;;0.60;0.60;;;16.30;40.20;;;;;;2256858;63;20115;-88
2022/04/02 13:10:46;;;;;;;0.82;0.50;;;16.40;39.30;;;;;;2254668;63;20325;-89
2022/04/02 13:13:14;;;;;;;0.50;0.50;;;16.30;39.10;;;;;;2254610;63;20830;-88